Time;durP1;ratioP1;P1;durP2;ratioP2;P2;SDS_P1;SDS_P2;PMS_P1;PMS_P2;Temp;Humidity;BMP_temperature;BMP_pressure;BME280_temperature;BME280_humidity;BME280_pressure;Samples;Min_cycle;Max_cycle;Signal;HPM_P1;HPM_P2
2022/01/23 00:03:26;;;;;;;1.40;1.40;;;;;;;1.65;59.15;101293.29;103608;1297;138534;-86
2022/01/23 00:05:59;;;;;;;1.70;1.70;;;;;;;1.63;59.08;101296.39;103926;1297;98498;-85
2022/01/23 00:08:45;;;;;;;1.50;1.50;;;;;;;1.64;59.24;101298.48;103846;1297;137966;-86
2022/01/23 00:11:39;;;;;;;1.70;1.70;;;;;;;1.64;59.21;101294.46;103961;1296;95191;-86
2022/01/23 00:17:18;;;;;;;1.50;1.50;;;;;;;1.51;59.55;101302.55;103864;1300;110382;-86
2022/01/23 00:19:49;;;;;;;1.60;1.60;;;;;;;1.42;59.86;101296.38;103713;1297;137827;-86
2022/01/23 00:22:44;;;;;;;1.60;1.60;;;;;;;1.40;60.13;101295.64;103870;1297;109622;-86
2022/01/23 00:31:55;;;;;;;1.60;1.60;;;;;;;1.44;60.44;101293.46;103908;1297;137689;-86
2022/01/23 00:34:45;;;;;;;1.60;1.60;;;;;;;1.47;60.52;101291.79;104008;1297;97291;-87
2022/01/23 00:37:33;;;;;;;1.60;1.60;;;;;;;1.49;60.48;101292.36;103786;1298;137915;-88
2022/01/23 00:40:05;;;;;;;1.40;1.40;;;;;;;1.46;60.49;101294.55;103658;1299;95767;-86
2022/01/23 00:43:50;;;;;;;1.50;1.50;;;;;;;1.46;60.70;101292.11;103703;1299;95308;-86
2022/01/23 00:49:34;;;;;;;1.30;1.30;;;;;;;1.55;60.53;101288.99;103800;1299;98035;-86
2022/01/23 00:52:43;;;;;;;1.40;1.40;;;;;;;1.51;60.74;101293.09;103639;1297;140693;-88
2022/01/23 00:55:32;;;;;;;1.40;1.40;;;;;;;1.46;60.83;101287.91;103850;1297;95194;-88
2022/01/23 00:58:22;;;;;;;1.70;1.70;;;;;;;1.40;61.10;101291.95;103961;1295;137382;-88
2022/01/23 01:01:14;;;;;;;1.50;1.50;;;;;;;1.38;61.46;101295.23;103917;1297;107812;-86
2022/01/23 01:03:43;;;;;;;1.40;1.40;;;;;;;1.38;61.67;101288.75;103912;1297;137809;-87
2022/01/23 01:07:00;;;;;;;1.30;1.30;;;;;;;1.40;61.58;101288.80;103861;1297;108293;-88
2022/01/23 01:10:45;;;;;;;1.50;1.50;;;;;;;1.44;61.52;101285.59;103714;1296;140031;-87
2022/01/23 01:17:23;;;;;;;1.40;1.40;;;;;;;1.40;61.91;101294.59;103750;1300;110287;-87
2022/01/23 01:33:16;;;;;;;1.50;1.50;;;;;;;1.43;61.79;101302.18;103849;1297;108999;-86
2022/01/23 01:35:37;;;;;;;1.40;1.40;;;;;;;1.43;61.93;101310.92;103779;1297;137981;-87
2022/01/23 01:38:54;;;;;;;1.40;1.40;;;;;;;1.40;62.20;101314.16;103777;1297;108393;-89
2022/01/23 01:42:11;;;;;;;1.30;1.30;;;;;;;1.46;62.10;101315.38;103870;1297;138446;-87
2022/01/23 01:45:30;;;;;;;1.50;1.50;;;;;;;1.41;62.01;101319.80;103705;1297;95080;-88
2022/01/23 01:48:40;;;;;;;1.50;1.50;;;;;;;1.36;62.25;101320.73;103720;1297;111017;-87
2022/01/23 01:52:06;;;;;;;1.30;1.30;;;;;;;1.42;62.17;101316.85;103978;1297;98604;-87
2022/01/23 01:55:39;;;;;;;1.30;1.30;;;;;;;1.48;62.14;101317.56;103884;1297;139209;-86
2022/01/23 02:09:14;;;;;;;1.30;1.30;;;;;;;1.44;62.15;101315.67;103877;1297;98558;-86
2022/01/23 02:16:32;;;;;;;1.40;1.40;;;;;;;1.38;62.48;101309.75;103607;1297;95710;-86
2022/01/23 02:54:58;;;;;;;1.50;1.50;;;;;;;1.32;62.60;101340.73;103740;1296;138851;-86
2022/01/23 02:57:38;;;;;;;1.40;1.40;;;;;;;1.30;62.79;101342.61;103692;1297;97691;-87
2022/01/23 03:00:50;;;;;;;1.50;1.50;;;;;;;1.27;62.67;101343.75;103569;1298;138956;-87
2022/01/23 03:04:33;;;;;;;1.40;1.40;;;;;;;1.27;62.99;101347.08;103686;1298;95695;-87
2022/01/23 03:09:07;;;;;;;1.50;1.50;;;;;;;1.26;63.01;101348.80;103697;1297;137435;-88
2022/01/23 03:11:38;;;;;;;1.60;1.60;;;;;;;1.20;63.10;101345.14;103666;1297;109796;-88
2022/01/23 03:32:27;;;;;;;1.50;1.50;;;;;;;1.37;62.82;101390.56;103664;1299;138600;-87
2022/01/23 03:35:49;;;;;;;1.50;1.50;;;;;;;1.41;63.05;101392.95;103788;1298;95188;-86
2022/01/23 03:38:41;;;;;;;1.30;1.30;;;;;;;1.45;62.68;101397.98;103984;1297;138404;-87
2022/01/23 03:41:15;;;;;;;1.40;1.40;;;;;;;1.42;62.75;101402.42;103949;1297;109693;-86
2022/01/23 03:43:47;;;;;;;1.40;1.40;;;;;;;1.43;62.69;101406.85;103729;1297;138834;-86
2022/01/23 03:46:50;;;;;;;1.50;1.50;;;;;;;1.45;62.63;101408.81;103289;1299;109421;-88
2022/01/23 03:50:01;;;;;;;1.30;1.30;;;;;;;1.55;62.54;101408.91;103373;1297;137841;-87
2022/01/23 03:53:03;;;;;;;1.60;1.60;;;;;;;1.70;62.16;101406.84;103866;1297;95571;-87
2022/01/23 03:56:15;;;;;;;1.40;1.40;;;;;;;1.62;62.21;101413.80;103884;1297;137905;-87
2022/01/23 03:59:24;;;;;;;1.30;1.30;;;;;;;1.62;62.36;101417.48;103908;1297;99956;-88
2022/01/23 04:02:16;;;;;;;1.30;1.30;;;;;;;1.62;62.37;101418.52;103695;1299;139549;-86
2022/01/23 04:05:44;;;;;;;1.40;1.40;;;;;;;1.69;62.22;101423.61;103871;1297;95165;-87
2022/01/23 04:08:34;;;;;;;1.40;1.40;;;;;;;1.68;62.21;101428.66;103817;1297;140045;-87
2022/01/23 04:11:30;;;;;;;1.40;1.40;;;;;;;1.71;62.18;101426.29;103929;1297;110518;-87
2022/01/23 04:14:29;;;;;;;1.50;1.50;;;;;;;1.70;62.14;101423.80;103773;1297;139367;-89
2022/01/23 04:18:07;;;;;;;1.50;1.50;;;;;;;1.65;62.31;101427.73;103872;1299;108423;-91
2022/01/23 04:20:40;;;;;;;1.40;1.40;;;;;;;1.63;62.26;101437.10;103794;1296;140079;-86
2022/01/23 04:33:52;;;;;;;1.40;1.40;;;;;;;1.65;62.38;101447.85;103979;1297;109262;-87
2022/01/23 04:48:51;;;;;;;1.30;1.30;;;;;;;1.77;62.09;101449.41;103970;1297;96892;-87
2022/01/23 05:01:24;;;;;;;1.30;1.30;;;;;;;1.73;62.36;101444.73;103518;1300;108789;-86
2022/01/23 05:04:36;;;;;;;1.40;1.40;;;;;;;1.74;62.24;101443.02;103852;1300;97915;-87
2022/01/23 05:07:39;;;;;;;1.50;1.50;;;;;;;1.69;62.30;101442.34;103851;1299;107899;-86
2022/01/23 05:10:45;;;;;;;1.30;1.30;;;;;;;1.70;62.34;101438.70;103590;1299;95819;-89
2022/01/23 05:14:12;;;;;;;1.30;1.30;;;;;;;1.63;62.48;101442.17;103806;1300;95786;-86
2022/01/23 05:17:25;;;;;;;1.50;1.50;;;;;;;1.59;62.28;101456.78;104028;1296;107431;-87
2022/01/23 05:20:36;;;;;;;1.50;1.50;;;;;;;1.57;62.76;101464.08;103811;1297;98896;-87
2022/01/23 05:23:44;;;;;;;1.40;1.40;;;;;;;1.60;62.59;101469.94;103825;1297;137612;-86
2022/01/23 05:27:03;;;;;;;1.40;1.40;;;;;;;1.54;62.69;101474.67;103763;1297;95246;-87
2022/01/23 05:29:32;;;;;;;1.50;1.50;;;;;;;1.48;62.83;101475.03;103770;1297;138679;-87
2022/01/23 05:33:01;;;;;;;1.30;1.30;;;;;;;1.46;63.05;101485.83;103951;1297;110729;-86
2022/01/23 05:35:31;;;;;;;1.40;1.40;;;;;;;1.48;62.98;101491.82;103736;1297;138158;-87
2022/01/23 05:38:01;;;;;;;1.40;1.40;;;;;;;1.47;62.96;101485.34;104008;1297;107953;-86
2022/01/23 05:40:40;;;;;;;1.40;1.40;;;;;;;1.47;63.25;101482.02;103882;1297;138687;-88
2022/01/23 05:43:45;;;;;;;1.40;1.40;;;;;;;1.55;63.10;101478.37;103886;1297;95184;-87
2022/01/23 05:46:40;;;;;;;1.40;1.40;;;;;;;1.59;63.05;101482.52;103731;1297;137230;-86
2022/01/23 05:49:44;;;;;;;1.40;1.40;;;;;;;1.61;62.75;101484.48;103841;1297;100049;-87
2022/01/23 05:52:34;;;;;;;1.40;1.40;;;;;;;1.53;63.10;101485.48;103506;1297;139327;-88
2022/01/23 05:55:23;;;;;;;1.30;1.30;;;;;;;1.60;62.93;101500.23;103742;1297;95576;-88
2022/01/23 05:58:13;;;;;;;1.20;1.20;;;;;;;1.61;63.06;101501.66;103702;1297;137079;-86
2022/01/23 06:01:02;;;;;;;1.30;1.30;;;;;;;1.61;62.97;101504.64;103856;1297;111239;-86
2022/01/23 06:03:32;;;;;;;1.40;1.40;;;;;;;1.59;63.09;101507.73;103799;1297;137386;-87
2022/01/23 06:06:34;;;;;;;1.40;1.40;;;;;;;1.64;63.04;101508.58;103933;1297;106632;-88
2022/01/23 06:09:23;;;;;;;1.30;1.30;;;;;;;1.64;62.86;101513.46;103842;1297;138687;-88
2022/01/23 06:12:48;;;;;;;1.30;1.30;;;;;;;1.62;62.98;101521.64;103813;1297;95270;-87
2022/01/23 06:16:15;;;;;;;1.40;1.40;;;;;;;1.73;62.86;101530.34;103850;1300;138308;-86
2022/01/23 06:19:42;;;;;;;1.30;1.30;;;;;;;1.75;63.12;101529.34;103677;1297;100088;-89
2022/01/23 06:22:53;;;;;;;1.30;1.30;;;;;;;1.81;62.83;101532.33;103371;1299;137244;-88
2022/01/23 06:25:43;;;;;;;1.50;1.50;;;;;;;1.82;62.76;101534.98;103858;1297;95221;-87
2022/01/23 06:28:55;;;;;;;1.40;1.40;;;;;;;1.92;62.52;101539.62;103900;1296;138842;-86
2022/01/23 06:31:23;;;;;;;1.30;1.30;;;;;;;1.90;62.48;101543.26;104011;1297;108913;-86
2022/01/23 06:33:55;;;;;;;1.30;1.30;;;;;;;1.87;62.59;101546.82;103674;1297;141533;-88
2022/01/23 06:36:27;;;;;;;1.40;1.40;;;;;;;1.84;62.66;101558.33;104070;1297;108429;-88
2022/01/23 06:40:11;;;;;;;1.30;1.30;;;;;;;1.91;62.54;101555.36;103854;1297;139277;-88
2022/01/23 06:43:23;;;;;;;1.20;1.20;;;;;;;1.99;62.45;101555.92;103393;1303;95686;-88
2022/01/23 06:46:34;;;;;;;1.30;1.30;;;;;;;2.05;62.22;101559.41;103782;1297;137218;-87
2022/01/23 06:49:23;;;;;;;1.30;1.30;;;;;;;2.00;62.37;101564.17;103977;1297;98423;-87
2022/01/23 06:52:11;;;;;;;1.20;1.20;;;;;;;2.05;62.44;101571.69;103800;1299;139286;-87
2022/01/23 06:55:07;;;;;;;1.20;1.20;;;;;;;2.15;62.38;101576.86;104004;1297;95355;-87
2022/01/23 06:58:16;;;;;;;1.20;1.20;;;;;;;2.15;62.06;101577.90;103824;1296;138269;-86
2022/01/23 07:01:26;;;;;;;1.20;1.20;;;;;;;2.16;62.22;101585.48;103919;1297;110809;-87
2022/01/23 07:04:26;;;;;;;1.20;1.20;;;;;;;2.13;62.28;101594.33;103724;1297;138348;-86
2022/01/23 07:07:09;;;;;;;1.20;1.20;;;;;;;2.20;62.25;101600.66;103695;1297;106522;-89
2022/01/23 07:10:06;;;;;;;1.30;1.30;;;;;;;2.15;62.16;101613.84;103492;1297;138777;-89
2022/01/23 07:13:14;;;;;;;1.30;1.30;;;;;;;2.12;62.46;101617.77;103747;1299;95716;-88
2022/01/23 07:16:38;;;;;;;1.20;1.20;;;;;;;2.27;62.46;101624.48;103319;1302;138673;-86
2022/01/23 07:19:58;;;;;;;1.20;1.20;;;;;;;2.34;62.37;101625.38;103789;1298;98452;-86
2022/01/23 07:22:36;;;;;;;1.30;1.30;;;;;;;2.41;62.26;101626.64;103572;1297;138467;-86
2022/01/23 07:26:06;;;;;;;1.30;1.30;;;;;;;2.41;62.34;101630.83;104094;1297;95472;-86
2022/01/23 07:28:58;;;;;;;1.30;1.30;;;;;;;2.40;61.72;101627.64;104037;1297;138832;-87
2022/01/23 07:32:08;;;;;;;1.20;1.20;;;;;;;2.40;62.17;101629.40;103977;1297;107165;-86
2022/01/23 07:34:57;;;;;;;1.40;1.40;;;;;;;2.35;62.26;101634.36;103778;1297;138947;-86
2022/01/23 07:38:18;;;;;;;1.20;1.20;;;;;;;2.40;62.67;101635.89;103648;1297;109589;-86
2022/01/23 07:41:12;;;;;;;1.20;1.20;;;;;;;2.55;62.41;101642.95;103873;1297;138242;-86
2022/01/23 07:44:07;;;;;;;1.20;1.20;;;;;;;2.65;61.84;101647.96;104032;1297;95096;-87
2022/01/23 07:47:00;;;;;;;1.30;1.30;;;;;;;2.66;61.59;101657.27;103796;1297;139087;-87
2022/01/23 07:49:54;;;;;;;1.20;1.20;;;;;;;2.56;61.66;101659.46;103893;1299;98373;-87
2022/01/23 07:52:43;;;;;;;1.20;1.20;;;;;;;2.55;61.30;101662.59;103560;1299;138013;-87
2022/01/23 07:56:11;;;;;;;1.30;1.30;;;;;;;2.46;61.33;101669.70;103812;1298;95205;-87
2022/01/23 07:59:39;;;;;;;1.20;1.20;;;;;;;2.35;61.04;101676.77;103763;1297;139742;-87
2022/01/23 08:03:22;;;;;;;1.20;1.20;;;;;;;2.26;61.06;101686.67;103947;1297;109300;-89
2022/01/23 08:07:58;;;;;;;;;;;;;;;;;;;;;
2022/01/23 08:10:32;;;;;;;1.30;1.30;;;;;;;2.36;60.42;101697.13;103626;1297;137543;-86
2022/01/23 08:13:07;;;;;;;1.30;1.30;;;;;;;2.34;59.64;101706.88;103986;1297;95085;-88
2022/01/23 08:15:57;;;;;;;1.20;1.20;;;;;;;2.34;60.05;101707.05;103991;1297;95361;-87
2022/01/23 08:18:30;;;;;;;1.30;1.30;;;;;;;2.38;59.91;101711.20;103709;1297;140423;-88
2022/01/23 08:21:38;;;;;;;1.20;1.20;;;;;;;2.49;59.40;101712.05;103970;1297;97151;-86
2022/01/23 08:24:06;;;;;;;1.30;1.30;;;;;;;2.51;58.63;101707.00;103898;1297;138334;-85
2022/01/23 08:26:37;;;;;;;1.30;1.30;;;;;;;2.48;58.69;101713.95;103987;1297;95657;-87
2022/01/23 08:29:25;;;;;;;1.30;1.30;;;;;;;2.46;58.42;101718.28;103786;1297;139380;-86
2022/01/23 08:31:53;;;;;;;1.30;1.30;;;;;;;2.43;58.52;101721.87;104023;1297;110271;-89
2022/01/23 08:34:32;;;;;;;1.30;1.30;;;;;;;2.46;58.64;101723.69;104041;1297;138526;-88
2022/01/23 08:37:11;;;;;;;1.30;1.30;;;;;;;2.54;58.39;101725.50;103868;1299;106657;-88
2022/01/23 08:39:45;;;;;;;1.30;1.30;;;;;;;2.60;57.86;101724.60;104071;1297;95533;-87
2022/01/23 08:42:40;;;;;;;1.30;1.30;;;;;;;2.67;57.45;101727.62;104159;1297;137663;-88
2022/01/23 08:45:10;;;;;;;1.30;1.30;;;;;;;2.66;56.19;101732.50;104265;1297;108801;-87
2022/01/23 08:47:59;;;;;;;1.30;1.30;;;;;;;2.71;56.45;101740.00;103922;1297;138856;-88
2022/01/23 08:50:31;;;;;;;1.30;1.30;;;;;;;2.76;55.69;101744.69;103793;1299;108338;-86
2022/01/23 08:53:01;;;;;;;1.30;1.30;;;;;;;2.81;55.33;101746.95;103915;1299;139386;-86
2022/01/23 08:55:29;;;;;;;1.30;1.30;;;;;;;2.92;55.15;101747.23;104221;1298;95362;-88
2022/01/23 08:57:57;;;;;;;1.20;1.20;;;;;;;3.04;54.48;101752.45;103978;1299;107428;-87
2022/01/23 09:01:08;;;;;;;1.20;1.20;;;;;;;3.02;53.28;101761.35;103873;1299;137278;-88
2022/01/23 09:03:37;;;;;;;1.30;1.30;;;;;;;2.90;53.38;101773.82;104092;1299;106538;-89
2022/01/23 09:06:49;;;;;;;1.20;1.20;;;;;;;2.90;53.46;101776.29;103926;1300;138498;-87
2022/01/23 09:10:25;;;;;;;1.20;1.20;;;;;;;2.98;53.20;101783.16;104136;1297;95705;-89
2022/01/23 09:13:27;;;;;;;1.30;1.30;;;;;;;3.01;53.34;101787.48;104096;1297;138202;-89
2022/01/23 09:16:27;;;;;;;;;;;;;;;;;;;;;
2022/01/23 09:20:00;;;;;;;1.20;1.20;;;;;;;3.12;53.17;101785.30;103921;1297;108344;-87
2022/01/23 09:22:51;;;;;;;1.30;1.30;;;;;;;3.16;52.98;101790.14;104161;1297;95257;-89
2022/01/23 09:25:20;;;;;;;1.40;1.40;;;;;;;3.19;53.03;101793.20;104151;1299;139173;-90
2022/01/23 09:27:49;;;;;;;1.20;1.20;;;;;;;3.23;52.79;101792.77;104036;1297;108770;-89
2022/01/23 09:30:39;;;;;;;1.20;1.20;;;;;;;3.41;52.37;101797.12;104111;1297;137657;-87
2022/01/23 09:34:10;;;;;;;1.70;1.70;;;;;;;3.86;51.99;101794.70;104401;1297;108852;-87
2022/01/23 09:37:02;;;;;;;1.10;1.10;;;;;;;5.61;50.88;101794.15;104356;1297;138470;-86
2022/01/23 09:40:27;;;;;;;0.80;0.80;;;;;;;8.32;46.02;101790.40;104330;1297;95167;-86
2022/01/23 09:43:06;;;;;;;0.90;0.90;;;;;;;10.92;40.65;101779.80;103860;1297;138822;-89
2022/01/23 09:45:49;;;;;;;0.70;0.70;;;;;;;13.39;36.48;101769.61;104083;1297;100171;-87
2022/01/23 09:48:21;;;;;;;0.40;0.30;;;;;;;15.04;33.21;101763.98;104325;1297;139169;-87
2022/01/23 09:51:26;;;;;;;0.40;0.30;;;;;;;15.12;31.53;101763.11;104155;1297;95299;-89
2022/01/23 09:53:58;;;;;;;0.40;0.20;;;;;;;14.91;32.38;101760.72;104084;1296;138295;-89
2022/01/23 09:57:24;;;;;;;0.40;0.20;;;;;;;14.76;31.16;101762.66;103950;1297;107836;-90
2022/01/23 10:00:35;;;;;;;0.40;0.20;;;;;;;13.19;32.18;101761.02;103893;1297;138844;-91
2022/01/23 10:03:23;;;;;;;0.40;0.20;;;;;;;12.37;32.33;101761.06;103881;1297;107696;-89
2022/01/23 10:05:57;;;;;;;0.40;0.30;;;;;;;11.43;33.67;101767.27;103832;1298;137830;-87
2022/01/23 10:09:53;;;;;;;0.40;0.30;;;;;;;10.35;34.44;101761.13;104191;1297;94765;-87
2022/01/23 10:13:01;;;;;;;0.50;0.40;;;;;;;9.45;36.01;101764.09;104238;1296;138211;-87
2022/01/23 10:15:36;;;;;;;0.50;0.50;;;;;;;9.05;36.88;101764.75;103845;1299;99077;-89
2022/01/23 10:18:11;;;;;;;0.60;0.60;;;;;;;8.45;37.76;101765.23;103794;1299;138794;-87
2022/01/23 10:21:02;;;;;;;0.60;0.60;;;;;;;8.00;38.56;101766.93;104061;1299;95041;-88
2022/01/23 10:24:12;;;;;;;0.60;0.60;;;;;;;7.51;39.32;101777.52;103793;1299;138024;-87
2022/01/23 10:27:01;;;;;;;0.70;0.70;;;;;;;7.11;40.03;101776.79;103945;1299;108763;-87
2022/01/23 10:29:55;;;;;;;0.70;0.70;;;;;;;6.59;40.28;101782.03;103876;1297;138911;-85
2022/01/23 10:32:25;;;;;;;0.90;0.90;;;;;;;5.79;40.13;101782.48;103866;1297;109410;-87
2022/01/23 10:35:01;;;;;;;0.80;0.80;;;;;;;5.45;41.73;101781.92;104057;1296;95186;-86
2022/01/23 10:37:41;;;;;;;0.80;0.80;;;;;;;5.45;41.94;101785.09;104013;1297;138460;-86
2022/01/23 10:40:22;;;;;;;0.90;0.90;;;;;;;5.48;42.24;101789.02;104079;1299;110042;-86
2022/01/23 10:46:37;;;;;;;0.90;0.90;;;;;;;5.41;42.43;101788.73;103837;1297;138188;-88
2022/01/23 10:48:51;;;;;;;1.00;1.00;;;;;;;4.96;43.81;101788.27;103736;1299;138370;-89
2022/01/23 10:51:29;;;;;;;1.10;1.10;;;;;;;5.03;43.51;101792.09;103783;1299;95382;-88
2022/01/23 10:54:20;;;;;;;0.70;0.70;;;;;;;7.24;40.59;101788.31;104056;1298;137165;-85
2022/01/23 10:57:07;;;;;;;0.70;0.70;;;;;;;8.17;38.93;101788.07;104020;1298;99023;-87
2022/01/23 10:59:43;;;;;;;0.80;0.80;;;;;;;7.18;39.49;101788.52;104105;1297;138740;-86
2022/01/23 11:02:32;;;;;;;0.70;0.70;;;;;;;6.39;39.71;101783.20;104405;1297;95253;-86
2022/01/23 11:05:03;;;;;;;0.90;0.90;;;;;;;5.60;40.07;101786.73;104172;1296;95697;-87
2022/01/23 11:07:52;;;;;;;0.80;0.80;;;;;;;4.75;41.51;101788.02;103942;1297;138206;-88
2022/01/23 11:10:28;;;;;;;0.90;0.90;;;;;;;4.57;43.30;101791.52;104103;1297;100012;-87
2022/01/23 11:18:48;;;;;;;1.00;1.00;;;;;;;4.10;44.69;101800.73;103768;1297;138401;-88
2022/01/23 11:21:21;;;;;;;1.10;1.10;;;;;;;4.04;44.65;101797.24;103766;1297;107420;-87
2022/01/23 11:24:13;;;;;;;1.20;1.20;;;;;;;3.79;45.07;101803.16;103809;1297;137700;-86
2022/01/23 11:26:42;;;;;;;1.00;1.00;;;;;;;3.60;44.93;101804.98;103717;1299;107901;-87
2022/01/23 11:29:12;;;;;;;1.10;1.10;;;;;;;3.43;44.95;101804.73;103650;1299;95707;-88
2022/01/23 11:31:43;;;;;;;1.40;1.40;;;;;;;3.44;46.16;101811.59;103724;1299;137824;-86
2022/01/23 11:34:14;;;;;;;1.20;1.20;;;;;;;3.51;46.09;101814.59;103812;1297;108715;-87
2022/01/23 11:36:57;;;;;;;1.10;1.10;;;;;;;3.47;46.06;101817.29;103914;1297;138942;-87
2022/01/23 11:39:41;;;;;;;1.10;1.10;;;;;;;3.45;46.40;101818.99;103776;1297;107557;-88
2022/01/23 11:50:51;;;;;;;1.30;1.30;;;;;;;3.38;46.74;101830.20;103843;1298;97112;-88
2022/01/23 11:56:25;;;;;;;1.30;1.30;;;;;;;3.27;46.27;101829.21;103711;1297;137907;-87
2022/01/23 11:59:28;;;;;;;1.20;1.20;;;;;;;3.24;46.55;101827.91;103697;1299;94096;-88
2022/01/23 12:02:26;;;;;;;1.40;1.40;;;;;;;3.25;46.38;101827.79;103766;1297;138095;-87
2022/01/23 12:05:14;;;;;;;1.20;1.20;;;;;;;3.25;46.51;101829.70;103813;1299;99080;-86
2022/01/23 12:08:18;;;;;;;1.20;1.20;;;;;;;3.26;46.38;101829.21;103527;1300;139038;-87
2022/01/23 12:11:25;;;;;;;1.20;1.20;;;;;;;3.30;46.43;101830.02;103728;1297;95236;-87
2022/01/23 12:17:05;;;;;;;1.30;1.30;;;;;;;3.23;46.71;101826.83;103802;1297;107470;-85
2022/01/23 12:19:43;;;;;;;1.40;1.40;;;;;;;3.21;46.73;101830.11;103848;1297;139096;-87
2022/01/23 12:22:37;;;;;;;1.40;1.40;;;;;;;3.18;46.95;101833.21;103868;1296;108447;-89
2022/01/23 12:25:30;;;;;;;1.30;1.30;;;;;;;3.20;46.77;101837.27;104188;1297;140815;-88
2022/01/23 12:28:48;;;;;;;1.30;1.30;;;;;;;3.14;46.15;101833.80;104949;1297;95706;-88
2022/01/23 12:31:23;;;;;;;1.30;1.30;;;;;;;2.98;46.11;101838.10;104857;1296;137177;-86
2022/01/23 12:34:10;;;;;;;1.20;1.20;;;;;;;2.98;46.49;101843.88;104611;1297;99962;-87
2022/01/23 12:36:42;;;;;;;1.30;1.30;;;;;;;2.99;46.86;101847.94;104797;1297;137942;-87
2022/01/23 12:39:11;;;;;;;1.30;1.30;;;;;;;3.00;46.80;101850.59;104934;1297;93598;-87
2022/01/23 12:42:05;;;;;;;1.30;1.30;;;;;;;2.99;46.84;101853.23;104914;1297;94538;-87
2022/01/23 12:44:38;;;;;;;1.30;1.30;;;;;;;2.96;46.53;101859.29;104852;1297;110130;-88
2022/01/23 12:47:18;;;;;;;1.30;1.30;;;;;;;2.99;46.73;101872.33;104880;1298;100075;-87
2022/01/23 12:49:52;;;;;;;1.20;1.20;;;;;;;2.96;46.36;101875.59;105089;1298;138070;-88
2022/01/23 12:52:26;;;;;;;1.20;1.20;;;;;;;2.93;46.11;101880.94;104803;1299;94119;-89
2022/01/23 12:54:58;;;;;;;1.30;1.30;;;;;;;2.87;46.16;101878.46;104763;1297;137784;-88
2022/01/23 12:57:49;;;;;;;1.30;1.30;;;;;;;2.84;45.93;101892.41;104695;1298;109578;-88
2022/01/23 13:00:24;;;;;;;1.30;1.30;;;;;;;2.71;46.66;101894.15;104465;1299;138741;-87
2022/01/23 13:03:13;;;;;;;1.20;1.20;;;;;;;2.67;46.79;101896.67;104600;1297;107958;-88
2022/01/23 13:05:49;;;;;;;1.60;1.60;;;;;;;2.73;46.25;101897.70;105003;1299;95204;-88
2022/01/23 13:08:23;;;;;;;1.30;1.30;;;;;;;2.72;45.98;101895.41;104635;1297;138522;-87
2022/01/23 13:11:21;;;;;;;1.50;1.50;;;;;;;2.61;46.05;101903.82;104942;1297;106459;-87
2022/01/23 13:13:57;;;;;;;1.40;1.40;;;;;;;2.50;45.81;101907.02;104719;1297;138228;-88
2022/01/23 13:16:47;;;;;;;1.30;1.30;;;;;;;2.47;46.36;101912.20;104884;1297;108551;-88
2022/01/23 13:29:42;;;;;;;1.40;1.40;;;;;;;2.53;46.90;101909.20;104703;1297;99135;-89
2022/01/23 13:31:39;;;;;;;1.40;1.40;;;;;;;2.57;47.41;101914.41;104294;1299;137736;-89
2022/01/23 13:34:34;;;;;;;1.30;1.30;;;;;;;2.64;46.94;101916.36;104858;1297;94269;-87
2022/01/23 13:37:11;;;;;;;1.40;1.40;;;;;;;2.66;46.86;101910.30;104535;1297;138478;-88
2022/01/23 13:39:52;;;;;;;1.40;1.40;;;;;;;2.68;46.74;101913.86;104538;1297;110713;-88
2022/01/23 14:00:11;;;;;;;1.40;1.40;;;;;;;2.54;46.96;101929.23;104423;1297;107238;-88
2022/01/23 14:02:52;;;;;;;1.50;1.50;;;;;;;2.44;47.03;101928.03;104833;1297;138036;-87
2022/01/23 14:05:33;;;;;;;1.50;1.50;;;;;;;2.41;47.35;101930.03;104961;1297;95136;-87
2022/01/23 14:08:05;;;;;;;1.40;1.40;;;;;;;2.30;47.34;101921.63;104768;1297;138211;-87
2022/01/23 14:10:39;;;;;;;1.50;1.50;;;;;;;2.35;47.40;101928.45;104803;1297;98392;-88
2022/01/23 14:13:27;;;;;;;1.50;1.50;;;;;;;2.34;47.88;101929.80;104506;1299;139342;-88
2022/01/23 14:16:01;;;;;;;1.40;1.40;;;;;;;2.34;47.69;101926.31;104685;1299;94417;-88
2022/01/23 14:18:31;;;;;;;1.40;1.40;;;;;;;2.29;47.72;101928.42;104823;1297;95726;-89
2022/01/23 14:21:13;;;;;;;1.40;1.40;;;;;;;2.26;47.76;101932.36;104623;1297;137497;-88
2022/01/23 14:23:56;;;;;;;1.30;1.30;;;;;;;2.31;47.92;101935.87;104770;1297;99105;-86
2022/01/23 14:26:27;;;;;;;1.50;1.50;;;;;;;2.35;48.18;101937.38;104948;1297;138354;-87
2022/01/23 14:29:05;;;;;;;1.50;1.50;;;;;;;2.39;48.32;101940.31;104584;1297;95234;-84
2022/01/23 14:31:38;;;;;;;1.50;1.50;;;;;;;2.36;47.97;101939.36;104228;1297;137158;-84
2022/01/23 14:34:23;;;;;;;1.40;1.40;;;;;;;2.35;47.49;101946.85;104365;1296;108979;-85
2022/01/23 14:37:03;;;;;;;1.50;1.50;;;;;;;2.33;47.47;101953.63;104328;1297;138483;-85
2022/01/23 14:39:34;;;;;;;1.50;1.50;;;;;;;2.36;47.34;101957.22;104284;1297;106647;-84
2022/01/23 14:42:14;;;;;;;1.50;1.50;;;;;;;2.32;47.26;101958.52;104357;1297;94585;-85
2022/01/23 14:44:43;;;;;;;1.60;1.60;;;;;;;2.27;47.41;101963.23;104174;1297;138139;-85
2022/01/23 14:47:12;;;;;;;1.60;1.60;;;;;;;2.13;47.42;101963.13;104283;1297;107596;-84
2022/01/23 14:49:47;;;;;;;1.40;1.40;;;;;;;2.10;47.84;101964.26;104306;1297;138452;-85
2022/01/23 14:52:18;;;;;;;1.40;1.40;;;;;;;2.01;47.90;101966.06;104360;1296;108774;-85
2022/01/23 14:54:51;;;;;;;1.50;1.50;;;;;;;2.05;48.51;101965.82;104123;1297;138565;-84
2022/01/23 14:57:20;;;;;;;1.50;1.50;;;;;;;2.10;48.34;101968.81;104391;1297;95184;-85
2022/01/23 14:59:48;;;;;;;1.50;1.50;;;;;;;2.04;48.42;101965.64;104487;1297;109519;-85
2022/01/23 15:02:16;;;;;;;1.50;1.50;;;;;;;2.08;48.61;101959.13;104005;1299;138147;-84
2022/01/23 15:04:45;;;;;;;1.40;1.40;;;;;;;2.01;48.67;101961.34;103874;1299;106568;-84
2022/01/23 15:07:17;;;;;;;1.50;1.50;;;;;;;2.05;49.19;101964.28;104098;1297;138986;-85
2022/01/23 15:09:49;;;;;;;1.50;1.50;;;;;;;2.06;48.37;101965.34;104255;1297;97956;-84
2022/01/23 15:12:18;;;;;;;1.60;1.60;;;;;;;1.98;48.82;101960.70;104008;1299;109397;-84
2022/01/23 15:14:46;;;;;;;1.60;1.60;;;;;;;2.01;49.46;101956.77;104183;1297;138352;-85
2022/01/23 15:17:15;;;;;;;1.60;1.60;;;;;;;2.02;49.79;101957.34;104180;1297;109044;-84
2022/01/23 15:19:43;;;;;;;1.60;1.60;;;;;;;2.07;49.92;101958.90;104247;1297;138405;-87
2022/01/23 15:22:16;;;;;;;1.60;1.60;;;;;;;2.06;49.72;101960.80;104279;1297;95095;-85
2022/01/23 15:24:45;;;;;;;1.70;1.70;;;;;;;2.07;50.14;101961.02;104093;1296;138631;-84
2022/01/23 15:27:14;;;;;;;1.60;1.60;;;;;;;2.05;50.03;101968.98;104115;1298;98987;-85
2022/01/23 15:29:44;;;;;;;1.90;1.90;;;;;;;2.00;50.20;101972.52;104157;1296;128789;-85
2022/01/23 15:32:12;;;;;;;1.60;1.60;;;;;;;2.01;50.52;101974.11;104081;1297;139155;-87
2022/01/23 15:34:40;;;;;;;1.50;1.50;;;;;;;2.02;50.18;101976.41;104278;1297;95704;-84
2022/01/23 15:37:08;;;;;;;1.60;1.60;;;;;;;1.98;49.98;101976.65;104172;1297;138196;-84
2022/01/23 15:39:38;;;;;;;1.60;1.60;;;;;;;1.98;49.97;101980.14;104225;1297;98952;-86
2022/01/23 15:42:07;;;;;;;1.70;1.70;;;;;;;1.94;49.81;101980.88;104216;1297;107822;-86
2022/01/23 15:44:36;;;;;;;1.60;1.60;;;;;;;1.90;49.86;101982.49;104312;1297;138254;-86
2022/01/23 15:47:05;;;;;;;1.60;1.60;;;;;;;1.80;49.81;101979.17;104322;1297;95199;-86
2022/01/23 15:49:36;;;;;;;1.50;1.50;;;;;;;1.73;50.17;101988.00;104278;1297;137676;-86
2022/01/23 15:52:06;;;;;;;1.50;1.50;;;;;;;1.72;50.33;102000.23;104283;1297;100422;-85
2022/01/23 15:54:34;;;;;;;1.60;1.60;;;;;;;1.66;50.54;102006.33;104367;1295;106436;-86
2022/01/23 15:57:03;;;;;;;1.70;1.70;;;;;;;1.65;50.44;102007.16;104052;1297;137153;-85
2022/01/23 15:59:36;;;;;;;1.70;1.70;;;;;;;1.63;50.56;102008.17;104191;1299;94366;-86
2022/01/23 16:02:06;;;;;;;1.60;1.60;;;;;;;1.56;50.70;102004.77;104178;1297;138213;-85
2022/01/23 16:04:37;;;;;;;1.60;1.60;;;;;;;1.45;50.64;102005.93;104112;1297;97504;-85
2022/01/23 16:07:09;;;;;;;1.70;1.70;;;;;;;1.39;50.65;102015.16;104012;1297;137904;-85
2022/01/23 16:09:37;;;;;;;1.60;1.60;;;;;;;1.31;50.85;102020.11;104067;1297;95105;-85